createdAt,value
2023-01-15T00:03:40.957Z,43.02
2023-01-15T00:08:42.076Z,43.23
2023-01-15T00:13:43.357Z,44.12
2023-01-15T00:18:44.657Z,43.00
2023-01-15T00:23:45.903Z,41.55
2023-01-15T00:28:48.028Z,42.27
2023-01-15T00:33:47.231Z,42.04
2023-01-15T00:38:48.525Z,41.52
2023-01-15T00:43:49.642Z,41.19
2023-01-15T00:48:51.918Z,43.02
2023-01-15T00:53:50.088Z,42.31
2023-01-15T00:58:51.547Z,41.68
2023-01-15T01:03:52.883Z,42.33
2023-01-15T01:08:54.063Z,41.41
2023-01-15T01:13:55.272Z,40.17
2023-01-15T01:18:56.549Z,42.13
2023-01-15T01:24:01.603Z,40.88
2023-01-15T01:28:58.860Z,40.88
2023-01-15T01:34:00.042Z,41.29
2023-01-15T01:39:01.368Z,40.58
2023-01-15T01:44:02.602Z,41.21
2023-01-15T01:49:03.924Z,40.68
2023-01-15T01:54:05.167Z,43.04
2023-01-15T01:59:06.465Z,41.09
2023-01-15T02:04:07.563Z,43.37
2023-01-15T02:09:08.813Z,42.96
2023-01-15T02:14:10.068Z,45.83
2023-01-15T02:19:11.330Z,47.99
2023-01-15T02:24:12.523Z,45.42
2023-01-15T02:29:13.663Z,46.15
2023-01-15T02:34:14.751Z,46.06
2023-01-15T02:39:15.961Z,46.97
2023-01-15T02:44:17.173Z,49.93
2023-01-15T02:49:18.360Z,51.46
2023-01-15T02:54:19.579Z,53.70
2023-01-15T02:59:20.750Z,53.01
2023-01-15T03:04:22.922Z,51.38
2023-01-15T03:09:22.117Z,50.56
2023-01-15T03:14:24.231Z,49.34
2023-01-15T03:19:23.324Z,45.04
2023-01-15T03:24:24.434Z,42.76
2023-01-15T03:29:26.543Z,42.76
2023-01-15T03:34:24.952Z,41.52
2023-01-15T03:39:26.182Z,43.26
2023-01-15T03:44:27.329Z,40.39
2023-01-15T03:49:28.581Z,40.70
2023-01-15T03:54:29.808Z,42.65
2023-01-15T03:59:31.027Z,43.49
2023-01-15T04:04:32.225Z,44.93
2023-01-15T04:09:33.495Z,45.24
2023-01-15T04:14:34.642Z,45.45
2023-01-15T04:19:35.849Z,44.63
2023-01-15T04:24:37.108Z,45.65
2023-01-15T04:29:38.357Z,45.95
2023-01-15T04:34:39.535Z,46.87
2023-01-15T04:39:40.796Z,47.28
2023-01-15T04:44:42.011Z,47.49
2023-01-15T04:49:43.157Z,47.79
2023-01-15T04:54:44.385Z,47.49
2023-01-15T04:59:45.616Z,48.10
2023-01-15T05:04:46.885Z,49.42
2023-01-15T05:09:48.125Z,46.87
2023-01-15T05:14:49.355Z,49.65
2023-01-15T05:19:50.536Z,48.81
2023-01-15T05:24:52.651Z,48.11
2023-01-15T05:29:51.888Z,47.58
2023-01-15T05:34:53.182Z,47.49
2023-01-15T05:39:55.352Z,45.85
2023-01-15T05:44:55.606Z,46.26
2023-01-15T05:49:54.796Z,44.92
2023-01-15T05:54:55.974Z,46.87
2023-01-15T05:59:57.108Z,49.44
2023-01-15T06:04:58.282Z,49.57
2023-01-15T06:09:59.512Z,48.55
2023-01-15T06:15:01.080Z,51.22
2023-01-15T06:20:00.325Z,50.81
2023-01-15T06:25:00.395Z,49.49
2023-01-15T06:30:01.620Z,50.81
2023-01-15T06:35:02.725Z,51.12
2023-01-15T06:40:03.928Z,50.63
2023-01-15T06:45:05.099Z,51.32
2023-01-15T06:50:06.384Z,50.61
2023-01-15T06:55:07.638Z,53.90
2023-01-15T07:00:08.949Z,54.74
2023-01-15T07:05:10.200Z,55.63
2023-01-15T07:10:11.401Z,52.37
2023-01-15T07:15:12.630Z,54.72
2023-01-15T07:20:13.900Z,56.35
2023-01-15T07:25:15.117Z,54.21
2023-01-15T07:30:16.281Z,54.21
2023-01-15T07:35:17.523Z,51.63
2023-01-15T07:40:18.618Z,50.51
2023-01-15T07:45:19.834Z,47.63
2023-01-15T07:50:21.078Z,49.37
2023-01-15T07:55:22.267Z,52.65
2023-01-15T08:00:23.466Z,55.13
2023-01-15T08:05:24.691Z,57.57
2023-01-15T08:10:26.934Z,59.21
2023-01-15T08:15:26.141Z,56.25
2023-01-15T08:20:27.407Z,60.23
2023-01-15T08:25:28.649Z,55.30
2023-01-15T08:30:29.883Z,61.18
2023-01-15T08:35:31.174Z,60.16
2023-01-15T08:40:32.393Z,52.12
2023-01-15T08:45:33.640Z,53.34
2023-01-15T08:50:34.828Z,51.40
2023-01-15T08:55:36.126Z,50.03
2023-01-15T09:00:37.381Z,50.84
2023-01-15T09:05:38.602Z,52.29
2023-01-15T09:10:39.777Z,53.22
2023-01-15T09:15:40.960Z,54.74
2023-01-15T09:20:42.203Z,54.03
2023-01-15T09:25:43.459Z,53.72
2023-01-15T09:30:44.641Z,54.44
2023-01-15T09:35:45.864Z,46.62
2023-01-15T09:40:47.055Z,54.94
2023-01-15T09:45:48.332Z,55.18
2023-01-15T09:50:49.602Z,54.67
2023-01-15T09:55:50.737Z,56.91
2023-01-15T10:00:51.928Z,72.11
2023-01-15T10:05:53.087Z,76.88
2023-01-15T10:10:54.286Z,83.23
2023-01-15T10:15:58.211Z,86.79
2023-01-15T10:20:55.512Z,85.15
2023-01-15T10:25:56.642Z,83.55
2023-01-15T10:30:57.847Z,82.93
2023-01-15T10:35:59.991Z,82.46
2023-01-15T10:41:00.180Z,80.79
2023-01-15T10:45:59.369Z,83.48
2023-01-15T10:51:00.486Z,86.74
2023-01-15T10:56:01.609Z,87.44
2023-01-15T11:01:02.758Z,87.73
2023-01-15T11:06:04.853Z,91.07
2023-01-15T11:11:04.102Z,91.63
2023-01-15T11:16:05.276Z,92.86
2023-01-15T11:21:06.480Z,92.40
2023-01-15T11:26:09.587Z,91.98
2023-01-15T11:31:09.961Z,91.77
2023-01-15T11:36:09.194Z,91.56
2023-01-15T11:41:11.321Z,92.19
2023-01-15T11:46:10.530Z,90.53
2023-01-15T11:51:11.665Z,90.12
2023-01-15T11:56:12.785Z,87.08
2023-01-15T12:01:13.980Z,86.16
2023-01-15T12:06:15.165Z,87.08
2023-01-15T12:11:26.335Z,84.78
2023-01-15T12:16:17.330Z,84.94
2023-01-15T12:21:16.568Z,84.99
2023-01-15T12:26:16.743Z,84.72
2023-01-15T12:31:17.895Z,84.92
2023-01-15T12:36:19.041Z,84.41
2023-01-15T12:41:20.209Z,83.62
2023-01-15T12:46:21.407Z,85.52
2023-01-15T12:51:24.508Z,86.92
2023-01-15T12:56:23.710Z,83.97
2023-01-15T13:01:24.868Z,83.97
2023-01-15T13:06:25.999Z,83.45
2023-01-15T13:11:27.132Z,86.18
2023-01-15T13:16:28.346Z,85.24
2023-01-15T13:21:30.563Z,85.80
2023-01-15T13:26:29.716Z,84.45
2023-01-15T13:31:30.885Z,85.91
2023-01-15T13:36:33.036Z,86.32
2023-01-15T13:41:33.203Z,85.91
2023-01-15T13:46:34.318Z,85.60
2023-01-15T13:51:33.474Z,86.01
2023-01-15T13:56:34.662Z,84.08
2023-01-15T14:01:36.929Z,86.77
2023-01-15T14:06:36.311Z,88.06
2023-01-15T14:11:37.641Z,88.57
2023-01-15T14:16:39.065Z,87.85
2023-01-15T14:21:40.340Z,89.09
2023-01-15T14:26:41.496Z,84.22
2023-01-15T14:31:42.771Z,87.23
2023-01-15T14:36:43.982Z,90.95
2023-01-15T14:41:45.363Z,91.09
2023-01-15T14:46:47.604Z,89.38
2023-01-15T14:51:46.859Z,87.64
2023-01-15T14:56:50.167Z,90.37
2023-01-15T15:01:50.167Z,90.47
2023-01-15T15:06:49.426Z,89.54
2023-01-15T15:11:50.705Z,88.57
2023-01-15T15:16:52.051Z,88.57
2023-01-15T15:21:53.262Z,82.46
2023-01-15T15:26:54.604Z,78.95
2023-01-15T15:31:56.370Z,80.19
2023-01-15T15:36:56.641Z,79.47
2023-01-15T15:41:56.792Z,81.26
2023-01-15T15:46:55.909Z,85.19
2023-01-15T15:51:57.067Z,85.09
2023-01-15T15:56:59.222Z,85.30
2023-01-15T16:01:59.495Z,87.88
2023-01-15T16:06:58.668Z,88.65
2023-01-15T16:11:59.826Z,89.94
2023-01-15T16:17:01.145Z,88.69
2023-01-15T16:22:03.429Z,89.11
2023-01-15T16:27:02.543Z,87.97
2023-01-15T16:32:03.798Z,84.96
2023-01-15T16:37:05.162Z,87.90
2023-01-15T16:42:06.685Z,90.54
2023-01-15T16:47:06.355Z,92.51
2023-01-15T16:52:05.825Z,89.61
2023-01-15T16:57:05.361Z,88.46
2023-01-15T17:02:05.935Z,91.37
2023-01-15T17:07:05.111Z,88.82
2023-01-15T17:12:07.562Z,89.65
2023-01-15T17:17:06.985Z,91.85
2023-01-15T17:22:08.430Z,92.36
2023-01-15T17:27:08.129Z,92.05
2023-01-15T17:32:07.508Z,93.03
2023-01-15T17:37:08.933Z,92.41
2023-01-15T17:42:09.398Z,91.06
2023-01-15T17:47:08.871Z,90.39
2023-01-15T17:52:08.339Z,91.83
2023-01-15T17:57:07.899Z,93.54
2023-01-15T18:02:08.278Z,93.99
2023-01-15T18:07:08.639Z,94.72
2023-01-15T18:12:08.147Z,93.99
2023-01-15T18:17:08.179Z,94.92
2023-01-15T18:22:08.100Z,95.85
2023-01-15T18:27:08.262Z,94.81
2023-01-15T18:32:08.047Z,93.98
2023-01-15T18:37:07.507Z,94.43
2023-01-15T18:42:09.097Z,95.73
2023-01-15T18:47:10.252Z,96.11
2023-01-15T18:52:10.159Z,96.83
2023-01-15T18:57:11.434Z,96.67
2023-01-15T19:02:11.074Z,96.98
2023-01-15T19:07:10.499Z,96.77
2023-01-15T19:12:11.976Z,96.77
2023-01-15T19:17:11.461Z,96.82
2023-01-15T19:22:10.965Z,97.80
2023-01-15T19:27:11.428Z,99.99
2023-01-15T19:32:11.983Z,97.65
2023-01-15T19:37:11.548Z,93.66
2023-01-15T19:42:11.092Z,91.95
2023-01-15T19:47:10.376Z,91.12
2023-01-15T19:52:11.551Z,91.31
2023-01-15T19:57:12.979Z,94.35
2023-01-15T20:02:12.500Z,96.06
2023-01-15T20:07:12.189Z,96.73
2023-01-15T20:12:13.658Z,96.73
2023-01-15T20:17:13.167Z,96.39
2023-01-15T20:22:13.603Z,94.68
2023-01-15T20:27:13.106Z,93.54
2023-01-15T20:32:12.556Z,93.58
2023-01-15T20:37:14.056Z,93.89
2023-01-15T20:42:13.543Z,94.76
2023-01-15T20:47:13.052Z,95.29
2023-01-15T20:52:12.557Z,95.12
2023-01-15T20:57:11.943Z,95.43
2023-01-15T21:02:14.054Z,95.64
2023-01-15T21:07:14.503Z,96.06
2023-01-15T21:12:12.824Z,96.83
2023-01-15T21:17:14.158Z,96.37
2023-01-15T21:22:15.588Z,95.64
2023-01-15T21:27:17.033Z,95.42
2023-01-15T21:32:18.233Z,96.92
2023-01-15T21:37:19.610Z,97.86
2023-01-15T21:42:20.899Z,98.53
2023-01-15T21:47:22.107Z,97.91
2023-01-15T21:52:23.216Z,98.11
2023-01-15T21:57:24.474Z,98.32
2023-01-15T22:02:25.945Z,98.32
2023-01-15T22:07:25.166Z,97.97
2023-01-15T22:12:26.373Z,98.07
2023-01-15T22:17:27.554Z,97.97
2023-01-15T22:22:28.832Z,97.80
2023-01-15T22:27:29.992Z,98.89
2023-01-15T22:32:31.193Z,98.43
2023-01-15T22:37:32.399Z,99.05
2023-01-15T22:42:33.622Z,97.70
2023-01-15T22:47:34.850Z,98.32
2023-01-15T22:52:36.053Z,97.97
2023-01-15T22:57:38.237Z,97.55
2023-01-15T23:02:37.439Z,97.44
2023-01-15T23:07:41.330Z,98.01
2023-01-15T23:12:38.692Z,97.80
2023-01-15T23:17:39.945Z,97.91
2023-01-15T23:22:42.197Z,97.70
2023-01-15T23:27:42.321Z,95.56
2023-01-15T23:32:41.543Z,93.96
2023-01-15T23:37:42.795Z,95.82
2023-01-15T23:42:44.735Z,96.76
2023-01-15T23:47:43.993Z,97.32
2023-01-15T23:52:45.264Z,95.98
2023-01-15T23:57:46.459Z,93.40
